Time;durP1;ratioP1;P1;durP2;ratioP2;P2;SDS_P1;SDS_P2;PMS_P1;PMS_P2;Temp;Humidity;BMP_temperature;BMP_pressure;BME280_temperature;BME280_humidity;BME280_pressure;Samples;Min_cycle;Max_cycle;Signal;HPM_P1;HPM_P2
2020/12/05 00:01:58;;;;;;;27.52;11.73;;;;;;;4.14;100.00;101880.87;1771139;81;20989;-55
2020/12/05 00:04:26;;;;;;;24.55;11.12;;;;;;;4.15;100.00;101873.36;1754670;81;21137;-56
2020/12/05 00:06:53;;;;;;;28.73;11.50;;;;;;;4.15;100.00;101861.41;1772416;80;21123;-55
2020/12/05 00:09:21;;;;;;;36.68;11.80;;;;;;;4.15;100.00;101874.69;1760974;81;21070;-56
2020/12/05 00:11:48;;;;;;;29.50;11.35;;;;;;;4.15;100.00;101872.03;1773609;80;21371;-57
2020/12/05 00:14:16;;;;;;;26.82;11.90;;;;;;;4.18;100.00;101891.97;1762213;81;21113;-56
2020/12/05 00:16:43;;;;;;;26.85;11.03;;;;;;;4.16;100.00;101879.12;1793600;80;21138;-56
2020/12/05 00:19:11;;;;;;;25.30;12.20;;;;;;;4.14;100.00;101876.44;1762168;81;21053;-56
2020/12/05 00:21:38;;;;;;;26.20;10.72;;;;;;;4.14;100.00;101888.39;1773658;80;21052;-56
2020/12/05 00:24:06;;;;;;;24.25;11.10;;;;;;;4.15;100.00;101901.23;1762187;81;21611;-56
2020/12/05 00:26:34;;;;;;;25.35;10.95;;;;;;;4.15;100.00;101880.87;1773524;80;21131;-55
2020/12/05 00:29:01;;;;;;;25.85;12.25;;;;;;;4.15;100.00;101901.23;1762178;81;21049;-55
2020/12/05 00:31:29;;;;;;;27.13;11.18;;;;;;;4.15;100.00;101882.66;1773606;80;21051;-55
2020/12/05 00:33:57;;;;;;;29.45;12.47;;;;;;;4.17;100.00;101899.48;1762178;81;21073;-56
2020/12/05 00:36:24;;;;;;;30.75;12.30;;;;;;;4.21;100.00;101903.94;1773632;80;21356;-55
2020/12/05 00:38:54;;;;;;;27.60;11.30;;;;;;;4.25;100.00;101907.53;1762124;81;21157;-55
2020/12/05 00:41:21;;;;;;;25.80;11.40;;;;;;;4.24;100.00;101898.66;1793615;80;21086;-55
2020/12/05 00:43:49;;;;;;;26.62;11.80;;;;;;;4.22;100.00;101913.69;1762204;81;21061;-56
2020/12/05 00:46:16;;;;;;;26.93;10.95;;;;;;;4.21;100.00;101904.40;1793547;78;21106;-55
2020/12/05 00:48:44;;;;;;;27.07;11.05;;;;;;;4.20;100.00;101910.55;1762210;81;21552;-56
2020/12/05 00:51:12;;;;;;;23.47;10.55;;;;;;;4.21;100.00;101898.63;1773570;80;21079;-56
2020/12/05 00:53:41;;;;;;;24.70;10.82;;;;;;;4.21;100.00;101905.27;1762373;81;21516;-55
2020/12/05 00:56:10;;;;;;;25.95;11.78;;;;;;;4.21;100.00;101901.28;1793525;80;21158;-55
2020/12/05 00:58:38;;;;;;;28.75;11.65;;;;;;;4.24;100.00;101902.64;1762201;81;21153;-56
2020/12/05 01:01:07;;;;;;;27.35;10.95;;;;;;;4.22;100.00;101910.16;1773639;80;21378;-56
2020/12/05 01:03:35;;;;;;;25.12;10.80;;;;;;;4.21;100.00;101931.82;1762206;81;21576;-56
2020/12/05 01:06:03;;;;;;;26.73;10.80;;;;;;;4.20;100.00;101915.44;1773682;80;21154;-56
2020/12/05 01:08:30;;;;;;;29.95;12.25;;;;;;;4.19;100.00;101918.97;1762085;81;21053;-56
2020/12/05 01:10:59;;;;;;;31.77;12.15;;;;;;;4.19;100.00;101930.92;1754646;81;21147;-56
2020/12/05 01:13:28;;;;;;;24.63;10.75;;;;;;;4.19;100.00;101916.31;1759802;81;21449;-57
2020/12/05 01:15:56;;;;;;;23.65;10.82;;;;;;;4.22;100.00;101908.37;1768364;81;21137;-56
2020/12/05 01:18:24;;;;;;;29.42;12.20;;;;;;;4.20;100.00;101907.47;1768374;81;21154;-56
2020/12/05 01:20:52;;;;;;;27.93;12.47;;;;;;;4.22;100.00;101932.27;1768426;81;21050;-56
2020/12/05 01:23:21;;;;;;;25.68;11.63;;;;;;;4.21;100.00;101901.28;1768403;81;21071;-56
2020/12/05 01:25:49;;;;;;;27.25;10.58;;;;;;;4.21;100.00;101917.22;1768409;81;21176;-56
2020/12/05 01:28:16;;;;;;;29.25;11.50;;;;;;;4.21;100.00;101903.94;1768319;81;21103;-55
2020/12/05 01:30:44;;;;;;;34.60;11.93;;;;;;;4.23;100.00;101918.13;1768433;81;21113;-55
2020/12/05 01:33:11;;;;;;;29.25;11.78;;;;;;;4.25;100.00;101911.06;1768367;81;21062;-56
2020/12/05 01:35:39;;;;;;;27.67;12.00;;;;;;;4.26;100.00;101904.87;1768374;81;21074;-55
2020/12/05 01:38:07;;;;;;;26.57;11.40;;;;;;;4.27;100.00;101904.00;1768435;81;21726;-55
2020/12/05 01:40:34;;;;;;;27.45;12.50;;;;;;;4.27;100.00;101911.95;1768454;81;21079;-56
2020/12/05 01:43:02;;;;;;;29.72;11.08;;;;;;;4.27;100.00;101897.81;1768493;81;21499;-56
2020/12/05 01:45:29;;;;;;;28.98;11.73;;;;;;;4.25;100.00;101907.08;1768581;81;21197;-55
2020/12/05 01:47:57;;;;;;;24.70;10.55;;;;;;;4.26;100.00;101915.48;1768612;81;21185;-56
2020/12/05 01:50:24;;;;;;;26.97;10.32;;;;;;;4.24;100.00;101919.90;1768530;81;21357;-57
2020/12/05 01:52:52;;;;;;;25.65;11.38;;;;;;;4.22;100.00;101908.37;1768458;81;21169;-56
2020/12/05 01:55:20;;;;;;;28.75;12.00;;;;;;;4.23;100.00;101907.95;1768621;81;21129;-56
2020/12/05 01:57:47;;;;;;;25.32;10.75;;;;;;;4.22;100.00;101913.69;1768501;81;21117;-56
2020/12/05 02:00:15;;;;;;;26.48;11.18;;;;;;;4.18;100.00;101914.53;1768555;81;21146;-56
2020/12/05 02:02:42;;;;;;;26.48;10.78;;;;;;;4.15;100.00;101901.23;1768502;81;21352;-55
2020/12/05 02:05:35;;;;;;;27.30;10.15;;;;;;;4.16;100.00;101913.63;1768481;81;21126;-56
2020/12/05 02:08:12;;;;;;;25.10;11.53;;;;;;;4.16;100.00;101904.34;1780475;80;21215;-56
2020/12/05 02:10:46;;;;;;;24.95;11.53;;;;;;;4.16;100.00;101908.33;1793883;80;21046;-55
2020/12/05 02:13:20;;;;;;;34.92;12.40;;;;;;;4.14;100.00;101908.30;1763548;81;21133;-55
2020/12/05 02:15:48;;;;;;;29.80;11.95;;;;;;;4.15;100.00;101914.05;1775039;80;21193;-57
2020/12/05 02:18:15;;;;;;;23.85;10.60;;;;;;;4.15;100.00;101906.55;1763289;81;20998;-55
2020/12/05 02:20:43;;;;;;;30.70;12.55;;;;;;;4.13;100.00;101919.78;1775088;80;21126;-56
2020/12/05 02:23:18;;;;;;;26.95;10.72;;;;;;;4.14;100.00;101894.15;1763346;81;21498;-54
2020/12/05 02:25:53;;;;;;;25.48;11.38;;;;;;;4.14;100.00;101904.77;1775088;80;21043;-55
2020/12/05 02:28:20;;;;;;;22.77;10.63;;;;;;;4.13;100.00;101908.30;1763355;81;21368;-55
2020/12/05 02:30:50;;;;;;;24.67;11.10;;;;;;;4.14;100.00;101919.37;1774963;80;21074;-55
2020/12/05 02:33:21;;;;;;;27.82;11.45;;;;;;;4.14;100.00;101929.53;1763322;81;21065;-55
2020/12/05 02:35:50;;;;;;;22.42;10.58;;;;;;;4.14;100.00;101912.28;1775165;80;21504;-55
2020/12/05 02:38:22;;;;;;;25.48;10.50;;;;;;;4.14;100.00;101916.25;1763409;81;21486;-55
2020/12/05 02:40:51;;;;;;;22.55;9.55;;;;;;;4.17;100.00;101914.09;1775061;80;21390;-56
2020/12/05 02:43:19;;;;;;;22.73;10.45;;;;;;;4.18;100.00;101926.48;1763291;81;20995;-56
2020/12/05 02:45:46;;;;;;;29.00;10.10;;;;;;;4.17;100.00;101916.73;1777322;80;21121;-56
2020/12/05 02:48:14;;;;;;;26.52;10.32;;;;;;;4.18;100.00;101927.81;1798357;79;21117;-56
2020/12/05 02:50:42;;;;;;;30.65;11.53;;;;;;;4.19;100.00;101929.59;1798369;79;21153;-56
2020/12/05 02:53:10;;;;;;;29.52;11.38;;;;;;;4.21;100.00;101930.48;1798459;79;21699;-55
2020/12/05 02:55:38;;;;;;;23.22;10.68;;;;;;;4.19;100.00;101914.98;1798278;79;21063;-56
2020/12/05 02:58:05;;;;;;;22.65;10.13;;;;;;;4.20;100.00;101938.00;1798461;79;21098;-56
2020/12/05 03:00:33;;;;;;;22.50;10.08;;;;;;;4.21;100.00;101932.27;1798428;79;21134;-56
2020/12/05 03:03:02;;;;;;;24.23;10.68;;;;;;;4.22;100.00;101919.00;1798358;79;21054;-56
2020/12/05 03:05:30;;;;;;;24.27;10.85;;;;;;;4.24;100.00;101925.20;1798401;79;21185;-56
2020/12/05 03:07:58;;;;;;;26.65;10.30;;;;;;;4.26;100.00;101930.09;1796840;79;20943;-56
2020/12/05 03:10:25;;;;;;;28.12;11.75;;;;;;;4.25;100.00;101923.00;1768392;80;21111;-56
2020/12/05 03:12:53;;;;;;;23.00;10.35;;;;;;;4.26;100.00;101923.45;1774508;80;21162;-55
2020/12/05 03:15:20;;;;;;;24.70;10.80;;;;;;;4.26;100.00;101934.53;1760396;81;21057;-56
2020/12/05 03:17:48;;;;;;;25.65;10.48;;;;;;;4.26;100.00;101935.86;1774548;80;21374;-56
2020/12/05 03:20:16;;;;;;;25.80;10.68;;;;;;;4.26;100.00;101930.09;1760346;81;21144;-56
2020/12/05 03:22:44;;;;;;;27.48;11.48;;;;;;;4.28;100.00;101932.33;1774481;80;21151;-56
2020/12/05 03:25:11;;;;;;;26.42;11.53;;;;;;;4.28;100.00;101931.00;1760308;81;21136;-56
2020/12/05 03:27:39;;;;;;;23.77;11.15;;;;;;;4.27;100.00;101931.87;1774511;80;21075;-55
2020/12/05 03:30:07;;;;;;;24.45;10.58;;;;;;;4.27;100.00;101947.80;1760376;81;21366;-56
2020/12/05 03:32:36;;;;;;;22.45;10.38;;;;;;;4.29;100.00;101943.84;1774463;80;21168;-55
2020/12/05 03:35:03;;;;;;;28.38;11.70;;;;;;;4.33;100.00;101942.13;1760377;81;21196;-56
2020/12/05 03:37:31;;;;;;;24.87;11.70;;;;;;;4.32;100.00;101936.37;1774483;80;21175;-55
2020/12/05 03:39:59;;;;;;;29.42;10.98;;;;;;;4.27;100.00;101946.47;1760328;81;21117;-56
2020/12/05 03:42:27;;;;;;;30.65;11.60;;;;;;;4.23;100.00;101939.36;1774464;80;21378;-56
2020/12/05 03:44:55;;;;;;;26.23;10.53;;;;;;;4.21;100.00;101937.12;1757096;81;21117;-55
2020/12/05 03:47:22;;;;;;;22.30;10.10;;;;;;;4.20;100.00;101946.39;1742462;82;21160;-56
2020/12/05 03:49:52;;;;;;;24.35;10.15;;;;;;;4.21;100.00;101945.55;1787346;80;21056;-55
2020/12/05 03:52:19;;;;;;;28.87;12.45;;;;;;;4.21;100.00;101945.55;1787435;80;21063;-56
2020/12/05 03:54:47;;;;;;;28.12;11.35;;;;;;;4.22;100.00;101955.29;1787477;80;21676;-56
2020/12/05 03:57:15;;;;;;;23.62;10.45;;;;;;;4.21;100.00;101954.38;1787333;80;21129;-56
2020/12/05 03:59:42;;;;;;;23.07;10.50;;;;;;;4.19;100.00;101947.27;1787468;80;21128;-56
2020/12/05 04:02:10;;;;;;;29.18;10.90;;;;;;;4.16;100.00;101949.47;1787458;80;21080;-55
2020/12/05 04:04:37;;;;;;;22.13;10.25;;;;;;;4.15;100.00;101949.02;1787360;80;21073;-55
2020/12/05 04:07:05;;;;;;;24.98;11.40;;;;;;;4.17;100.00;101949.92;1787408;80;21322;-56
2020/12/05 04:09:34;;;;;;;21.70;10.82;;;;;;;4.20;100.00;101947.72;1790596;80;21129;-56
2020/12/05 04:12:01;;;;;;;27.85;10.90;;;;;;;4.18;100.00;101954.36;1774976;80;21092;-55
2020/12/05 04:14:29;;;;;;;29.52;11.10;;;;;;;4.13;100.00;101960.06;1763312;81;21039;-56
2020/12/05 04:16:57;;;;;;;25.25;10.08;;;;;;;4.07;100.00;101955.56;1775079;80;21055;-56
2020/12/05 04:19:25;;;;;;;20.27;9.40;;;;;;;4.06;100.00;101955.11;1763266;81;21379;-55
2020/12/05 04:21:54;;;;;;;21.05;9.73;;;;;;;4.05;100.00;101965.70;1763292;81;21134;-56
2020/12/05 04:24:21;;;;;;;25.75;9.83;;;;;;;4.05;100.00;101959.06;1763338;81;21081;-56
2020/12/05 04:26:49;;;;;;;27.13;11.25;;;;;;;4.03;100.00;101955.50;1763244;81;21069;-56
2020/12/05 04:29:16;;;;;;;27.00;10.48;;;;;;;4.01;100.00;101949.73;1775032;80;21123;-56
2020/12/05 04:31:43;;;;;;;23.98;11.45;;;;;;;4.01;100.00;101962.14;1763375;81;21382;-56
2020/12/05 04:34:11;;;;;;;23.22;10.10;;;;;;;4.03;100.00;101964.79;1775094;80;21494;-56
2020/12/05 04:36:39;;;;;;;20.57;9.40;;;;;;;4.01;100.00;101966.98;1763331;81;21132;-56
2020/12/05 04:39:07;;;;;;;24.60;10.40;;;;;;;4.00;100.00;101953.27;1763275;81;21129;-56
2020/12/05 04:41:34;;;;;;;24.92;11.33;;;;;;;3.98;100.00;101970.06;1774921;80;21163;-55
2020/12/05 04:44:02;;;;;;;24.40;10.32;;;;;;;3.94;100.00;101969.13;1763248;81;21347;-56
2020/12/05 04:46:30;;;;;;;23.92;10.90;;;;;;;3.92;100.00;101958.94;1775026;80;21578;-56
2020/12/05 04:48:57;;;;;;;22.82;9.63;;;;;;;3.92;100.00;101962.91;1763270;81;21093;-56
2020/12/05 04:51:25;;;;;;;21.85;9.38;;;;;;;3.91;100.00;101975.73;1763189;81;21114;-55
2020/12/05 04:53:53;;;;;;;24.18;10.28;;;;;;;3.88;100.00;101967.73;1763211;81;21156;-56
2020/12/05 04:56:20;;;;;;;23.47;9.48;;;;;;;3.87;100.00;101969.94;1774995;80;21193;-56
2020/12/05 04:58:48;;;;;;;26.50;10.32;;;;;;;3.86;100.00;101976.08;1763131;81;21069;-56
2020/12/05 05:01:18;;;;;;;27.77;10.32;;;;;;;3.84;100.00;101972.52;1774969;80;21012;-56
2020/12/05 05:03:46;;;;;;;23.18;10.50;;;;;;;3.83;100.00;101978.70;1763197;81;21115;-56
2020/12/05 05:06:19;;;;;;;21.17;10.23;;;;;;;3.84;100.00;101967.22;1774981;80;21162;-56
2020/12/05 05:08:47;;;;;;;17.12;9.13;;;;;;;3.84;100.00;101989.34;1758956;81;21200;-55
2020/12/05 05:11:17;;;;;;;24.65;10.68;;;;;;;3.84;100.00;101977.83;1780738;80;21129;-56
2020/12/05 05:13:59;;;;;;;23.38;10.98;;;;;;;3.85;100.00;101970.32;1780767;80;21541;-56
2020/12/05 05:16:29;;;;;;;24.52;9.93;;;;;;;3.85;100.00;101984.91;1753861;80;21133;-56
2020/12/05 05:18:59;;;;;;;28.20;10.18;;;;;;;3.82;100.00;101991.09;1749930;82;21132;-56
2020/12/05 05:21:38;;;;;;;19.07;8.93;;;;;;;3.79;100.00;101982.19;1721180;82;21445;-56
2020/12/05 05:24:16;;;;;;;25.50;8.88;;;;;;;3.78;100.00;101980.41;1749791;81;21148;-56
2020/12/05 05:26:44;;;;;;;22.20;9.30;;;;;;;3.78;100.00;101977.76;1750005;82;21137;-56
2020/12/05 05:29:42;;;;;;;20.45;10.18;;;;;;;3.80;100.00;101976.92;1749955;82;21136;-56
2020/12/05 05:32:15;;;;;;;25.05;10.05;;;;;;;3.81;100.00;101989.31;1750079;81;21081;-56
2020/12/05 05:34:40;;;;;;;24.18;8.80;;;;;;;3.78;100.00;101991.94;1749880;82;21389;-55
2020/12/05 05:37:15;;;;;;;24.63;9.63;;;;;;;3.76;100.00;102007.36;1749877;82;21090;-56
2020/12/05 05:39:47;;;;;;;;;;;;;;;3.76;100.00;102000.73;1752597;82;21553;-57
2020/12/05 05:42:33;;;;;;;31.75;10.55;;;;;;;3.77;100.00;101998.53;1749981;82;20229;-57
2020/12/05 05:45:27;;;;;;;23.47;9.98;;;;;;;3.81;100.00;102014.94;1749743;82;21065;-55
2020/12/05 05:48:02;;;;;;;20.00;9.88;;;;;;;3.83;100.00;102001.25;1749957;81;21376;-56
2020/12/05 05:50:32;;;;;;;24.37;9.55;;;;;;;3.84;100.00;102012.33;1749937;82;21144;-56
2020/12/05 05:53:02;;;;;;;23.15;9.15;;;;;;;3.80;100.00;102009.18;1749956;82;21125;-56
2020/12/05 05:55:49;;;;;;;18.23;9.43;;;;;;;3.79;100.00;102003.42;1750042;82;21486;-57
2020/12/05 05:58:19;;;;;;;30.10;9.40;;;;;;;3.79;100.00;101999.44;1749980;82;21066;-55
2020/12/05 06:00:49;;;;;;;20.65;8.88;;;;;;;3.81;100.00;102006.56;1749946;82;21437;-56
2020/12/05 06:03:23;;;;;;;18.37;8.40;;;;;;;3.82;100.00;102030.89;1749986;82;21161;-56
2020/12/05 06:05:52;;;;;;;22.58;9.60;;;;;;;3.79;100.00;102037.91;1750123;82;21086;-57
2020/12/05 06:08:23;;;;;;;24.52;9.63;;;;;;;3.75;100.00;102020.17;1749892;80;21232;-55
2020/12/05 06:11:01;;;;;;;21.05;9.40;;;;;;;3.76;100.00;102039.20;1774977;80;21139;-55
2020/12/05 06:13:32;;;;;;;22.58;8.90;;;;;;;3.77;100.00;102027.71;1776521;80;21276;-56
2020/12/05 06:16:01;;;;;;;22.40;8.78;;;;;;;3.77;100.00;102024.64;1776448;80;21062;-56
2020/12/05 06:18:29;;;;;;;32.45;9.13;;;;;;;3.77;100.00;102009.14;1776541;80;21178;-56
2020/12/05 06:20:58;;;;;;;33.88;10.03;;;;;;;3.76;100.00;102012.25;1756557;81;20991;-56
2020/12/05 06:23:42;;;;;;;25.02;9.10;;;;;;;3.77;100.00;102007.81;1770692;80;21154;-56
2020/12/05 06:26:12;;;;;;;24.55;8.95;;;;;;;3.78;100.00;102015.81;1756584;81;21687;-55
2020/12/05 06:28:39;;;;;;;21.87;8.45;;;;;;;3.78;100.00;102015.81;1747539;80;21174;-56
2020/12/05 06:31:07;;;;;;;27.30;9.90;;;;;;;3.78;100.00;102005.20;1727311;81;21136;-56
2020/12/05 06:33:43;;;;;;;22.07;9.05;;;;;;;3.78;100.00;102010.50;1776735;80;21119;-55
2020/12/05 06:36:35;;;;;;;21.05;8.13;;;;;;;3.78;100.00;102042.34;1776734;80;21050;-56
2020/12/05 06:39:18;;;;;;;22.52;8.68;;;;;;;3.74;100.00;102031.20;1756623;81;21967;-56
2020/12/05 06:41:51;;;;;;;24.95;8.60;;;;;;;3.72;100.00;102035.17;1776714;80;21535;-56
2020/12/05 06:44:23;;;;;;;32.25;8.73;;;;;;;3.73;100.00;102025.44;1756719;81;21466;-56
2020/12/05 06:46:57;;;;;;;22.95;8.58;;;;;;;3.72;100.00;102029.87;1756795;78;21613;-57
2020/12/05 06:49:42;;;;;;;25.12;9.50;;;;;;;3.78;100.00;102038.78;1747544;82;21106;-58
2020/12/05 06:52:30;;;;;;;21.82;7.92;;;;;;;3.78;100.00;102028.16;1747653;82;22035;-55
2020/12/05 06:55:09;;;;;;;16.87;8.18;;;;;;;3.80;100.00;102027.33;1747447;82;21077;-57
2020/12/05 06:57:38;;;;;;;16.45;7.42;;;;;;;3.80;100.00;102031.73;1747504;82;21101;-56
2020/12/05 07:00:25;;;;;;;18.75;7.95;;;;;;;3.82;100.00;102028.66;1747533;82;21133;-56
2020/12/05 07:02:59;;;;;;;18.60;8.65;;;;;;;3.83;100.00;102042.38;1747643;82;21593;-56
2020/12/05 07:05:42;;;;;;;25.27;8.78;;;;;;;3.85;100.00;102049.92;1741322;82;21370;-56
2020/12/05 07:08:24;;;;;;;17.85;8.05;;;;;;;3.88;100.00;102035.40;1747537;81;21069;-55
2020/12/05 07:11:01;;;;;;;21.20;9.03;;;;;;;3.87;100.00;102038.47;1747481;82;21494;-55
2020/12/05 07:13:45;;;;;;;19.40;8.08;;;;;;;3.88;100.00;102055.30;1747528;82;21110;-56
2020/12/05 07:16:26;;;;;;;21.05;8.73;;;;;;;3.86;100.00;102045.98;1747664;82;21188;-56
2020/12/05 07:18:59;;;;;;;20.60;7.87;;;;;;;3.86;100.00;102053.03;1739323;82;22277;-56
2020/12/05 07:21:29;;;;;;;17.90;7.65;;;;;;;3.85;100.00;102048.59;1747462;82;21038;-57
2020/12/05 07:23:56;;;;;;;17.25;7.70;;;;;;;3.84;100.00;102044.16;1747644;82;21484;-56
2020/12/05 07:26:24;;;;;;;16.02;7.55;;;;;;;3.82;100.00;102051.21;1747500;81;21204;-57
2020/12/05 07:28:53;;;;;;;17.77;7.85;;;;;;;3.81;100.00;102042.80;1747533;82;21207;-56
2020/12/05 07:31:21;;;;;;;17.05;7.65;;;;;;;3.81;100.00;102044.13;1747597;82;22124;-56
2020/12/05 07:33:49;;;;;;;16.52;7.87;;;;;;;3.86;100.00;102051.28;1747572;82;21026;-57
2020/12/05 07:36:17;;;;;;;20.52;8.45;;;;;;;3.87;100.00;102069.44;1747465;82;21149;-56
2020/12/05 07:38:46;;;;;;;17.35;7.70;;;;;;;3.86;100.00;102051.70;1747429;82;21141;-56
2020/12/05 07:41:19;;;;;;;18.82;7.95;;;;;;;3.86;100.00;102041.09;1754566;78;21559;-55
2020/12/05 07:43:48;;;;;;;20.05;7.35;;;;;;;3.92;100.00;102042.53;1765606;78;21370;-56
2020/12/05 07:46:16;;;;;;;16.77;8.13;;;;;;;3.95;100.00;102050.52;1713230;80;21161;-56
2020/12/05 07:48:44;;;;;;;17.67;7.53;;;;;;;3.96;100.00;102058.94;1760870;78;21222;-56
2020/12/05 07:51:17;;;;;;;15.50;7.37;;;;;;;3.97;100.00;102063.80;1766320;80;21475;-55
2020/12/05 07:53:46;;;;;;;17.60;7.67;;;;;;;3.96;100.00;102049.65;1763563;78;21565;-56
2020/12/05 07:56:33;;;;;;;16.65;7.90;;;;;;;3.96;100.00;102047.00;1759000;80;21184;-62
2020/12/05 07:59:02;;;;;;;14.15;7.15;;;;;;;3.96;100.00;102053.63;1765014;78;20995;-60
2020/12/05 08:01:53;;;;;;;20.30;8.03;;;;;;;3.95;100.00;102049.61;1752813;78;21073;-59
2020/12/05 08:04:48;;;;;;;14.93;7.35;;;;;;;3.94;100.00;102052.72;1759022;78;21153;-61
2020/12/05 08:07:37;;;;;;;18.07;5.95;;;;;;;3.97;100.00;102050.52;1760648;78;21164;-60
2020/12/05 08:10:10;;;;;;;18.10;8.05;;;;;;;3.96;100.00;102054.95;1764566;80;21542;-60
2020/12/05 08:13:20;;;;;;;17.45;7.90;;;;;;;3.98;100.00;102058.97;1723642;79;21161;-60
2020/12/05 08:16:06;;;;;;;17.80;6.97;;;;;;;3.97;100.00;102049.20;1763034;80;21041;-59
2020/12/05 08:18:36;;;;;;;16.10;7.33;;;;;;;3.92;100.00;102057.54;1768607;80;21137;-60
2020/12/05 08:21:05;;;;;;;15.35;6.75;;;;;;;3.90;100.00;102049.58;1757813;80;21145;-59
2020/12/05 08:23:37;;;;;;;16.40;7.22;;;;;;;3.90;100.00;102052.23;1762948;80;21165;-59
2020/12/05 08:26:15;;;;;;;15.58;6.65;;;;;;;3.90;100.00;102060.19;1762198;78;21673;-59
2020/12/05 08:28:46;;;;;;;13.95;7.50;;;;;;;3.93;100.00;102056.25;1763941;80;21157;-60
2020/12/05 08:31:15;;;;;;;17.37;8.05;;;;;;;3.92;100.00;102055.80;1736226;80;21189;-59
2020/12/05 08:33:49;;;;;;;17.17;6.95;;;;;;;3.89;100.00;102065.47;1753944;80;21113;-60
2020/12/05 08:36:32;;;;;;;17.52;7.20;;;;;;;3.88;100.00;102047.34;1735118;80;21212;-59
2020/12/05 08:39:08;;;;;;;17.02;7.35;;;;;;;3.89;100.00;102061.06;1757284;80;21117;-59
2020/12/05 08:41:46;;;;;;;22.07;7.30;;;;;;;3.92;100.00;102062.84;1760373;78;21137;-59
2020/12/05 08:44:21;;;;;;;19.32;7.53;;;;;;;3.92;100.00;102057.12;1758761;80;21192;-59
2020/12/05 08:47:01;;;;;;;20.40;7.35;;;;;;;3.91;100.00;102055.34;1729490;80;21102;-60
2020/12/05 08:49:36;;;;;;;17.45;7.40;;;;;;;3.91;100.00;102064.63;1755371;78;22252;-60
2020/12/05 08:52:05;;;;;;;16.00;7.67;;;;;;;3.91;100.00;102070.36;1765359;78;21141;-60
2020/12/05 08:54:52;;;;;;;17.15;7.40;;;;;;;3.92;100.00;102053.56;1736288;79;21160;-59
2020/12/05 08:57:22;;;;;;;18.05;7.65;;;;;;;3.91;100.00;102059.32;1767290;78;21477;-59
2020/12/05 09:00:00;;;;;;;17.80;7.60;;;;;;;3.89;100.00;102053.11;1760571;80;21180;-60
2020/12/05 09:02:36;;;;;;;15.45;6.67;;;;;;;3.88;100.00;102050.00;1763500;78;22307;-59
2020/12/05 09:05:05;;;;;;;16.57;7.55;;;;;;;3.90;100.00;102069.48;1763711;78;38742;-59
2020/12/05 09:07:35;;;;;;;14.65;7.10;;;;;;;3.90;100.00;102048.25;1758888;78;21161;-60
2020/12/05 09:10:17;;;;;;;16.32;7.00;;;;;;;3.91;100.00;102061.06;1768229;79;21199;-60
2020/12/05 09:12:46;;;;;;;19.35;6.45;;;;;;;3.89;100.00;102054.43;1765541;81;21110;-60
2020/12/05 09:15:15;;;;;;;16.85;6.65;;;;;;;3.89;100.00;102070.77;1790433;79;21399;-59
2020/12/05 09:17:43;;;;;;;13.80;7.25;;;;;;;3.86;99.66;102055.27;1772255;79;21200;-60
2020/12/05 09:20:24;;;;;;;15.45;6.58;;;;;;;3.83;99.29;102056.55;1782519;79;21136;-59
2020/12/05 09:22:57;;;;;;;14.70;5.10;;;;;;;3.81;99.17;102049.43;1768219;79;21578;-59
2020/12/05 09:25:35;;;;;;;17.77;7.22;;;;;;;3.80;99.16;102037.03;1789002;79;21198;-59
2020/12/05 09:28:12;;;;;;;17.62;6.33;;;;;;;3.81;99.15;102050.34;1760651;80;21189;-59
2020/12/05 09:30:44;;;;;;;17.90;6.95;;;;;;;3.82;99.42;102051.21;1760152;79;21541;-59
2020/12/05 09:33:17;;;;;;;23.83;7.72;;;;;;;3.83;99.62;102047.27;1783774;79;21161;-60
2020/12/05 09:35:45;;;;;;;15.90;6.85;;;;;;;3.89;99.83;102069.44;1783812;79;21514;-59
2020/12/05 09:38:13;;;;;;;13.43;6.65;;;;;;;3.89;99.39;102054.43;1786433;79;21168;-60
2020/12/05 09:40:43;;;;;;;13.68;6.05;;;;;;;3.88;98.91;102056.63;1782332;79;21224;-59
2020/12/05 09:43:12;;;;;;;21.52;7.65;;;;;;;3.87;98.88;102056.17;1784986;79;21145;-60
2020/12/05 09:45:39;;;;;;;16.90;7.20;;;;;;;3.88;98.80;102059.28;1785547;79;21070;-59
2020/12/05 09:48:08;;;;;;;18.02;6.85;;;;;;;3.85;98.90;102055.23;1783328;79;21066;-60
2020/12/05 09:50:36;;;;;;;14.95;6.20;;;;;;;3.83;98.84;102051.66;1776210;79;21161;-59
2020/12/05 09:53:06;;;;;;;14.35;6.65;;;;;;;3.83;98.94;102048.59;1775933;79;22071;-60
2020/12/05 09:55:37;;;;;;;17.02;6.97;;;;;;;3.85;98.92;102056.55;1780827;79;21554;-60
2020/12/05 09:58:07;;;;;;;16.40;7.30;;;;;;;3.85;98.94;102040.64;1788266;79;21136;-59
2020/12/05 10:00:34;;;;;;;14.20;6.58;;;;;;;3.84;99.07;102033.13;1761274;81;21138;-60
2020/12/05 10:03:09;;;;;;;17.75;7.75;;;;;;;3.86;99.35;102042.00;1789656;79;21049;-60
2020/12/05 10:05:39;;;;;;;20.97;6.72;;;;;;;3.87;99.46;102038.92;1762259;81;21422;-60
2020/12/05 10:08:10;;;;;;;17.05;7.08;;;;;;;3.87;99.54;102034.49;1781999;79;21148;-59
2020/12/05 10:10:42;;;;;;;13.43;6.65;;;;;;;3.88;99.46;102048.66;1759360;80;21677;-59
2020/12/05 10:13:10;;;;;;;15.68;6.60;;;;;;;3.87;99.28;102030.97;1776825;80;21058;-59
2020/12/05 10:15:40;;;;;;;19.60;7.47;;;;;;;3.83;99.10;102031.77;1761723;80;21168;-59
2020/12/05 10:18:09;;;;;;;16.15;7.17;;;;;;;3.80;99.07;102031.73;1768986;80;21206;-59
2020/12/05 10:20:38;;;;;;;18.57;6.85;;;;;;;3.73;98.73;102027.67;1774994;79;21105;-58
2020/12/05 10:23:07;;;;;;;13.40;6.12;;;;;;;3.70;98.71;102040.91;1766783;80;21188;-59
2020/12/05 10:25:35;;;;;;;17.73;6.67;;;;;;;3.70;98.50;102038.25;1747728;80;21144;-59
2020/12/05 10:28:07;;;;;;;17.23;6.83;;;;;;;3.67;98.19;102036.88;1773348;80;21156;-59
2020/12/05 10:30:35;;;;;;;16.75;6.42;;;;;;;3.66;98.05;102039.50;1769485;78;21387;-58
2020/12/05 10:33:02;;;;;;;22.13;6.78;;;;;;;3.62;97.96;102037.22;1763978;80;21070;-58
2020/12/05 10:35:34;;;;;;;18.95;7.08;;;;;;;3.61;98.02;102025.28;1767501;80;21157;-59
2020/12/05 10:38:03;;;;;;;20.15;7.25;;;;;;;3.60;98.02;102027.03;1775294;80;21175;-59
2020/12/05 10:40:31;;;;;;;14.00;6.45;;;;;;;3.57;98.09;102023.92;1779504;78;21481;-60
2020/12/05 10:43:04;;;;;;;16.45;6.50;;;;;;;3.57;97.98;102028.31;1768268;80;21195;-59
2020/12/05 10:45:31;;;;;;;14.38;6.97;;;;;;;3.54;97.59;102032.25;1771446;80;21065;-60
2020/12/05 10:47:59;;;;;;;17.57;7.28;;;;;;;3.54;97.88;102033.16;1767553;79;21057;-58
2020/12/05 10:50:28;;;;;;;19.20;7.25;;;;;;;3.56;98.21;102019.91;1773810;80;21204;-59
2020/12/05 10:52:57;;;;;;;22.52;7.33;;;;;;;3.59;98.36;102041.16;1763396;80;21168;-58
2020/12/05 10:55:29;;;;;;;16.17;7.12;;;;;;;3.57;97.77;102027.89;1772441;80;22122;-59
2020/12/05 10:57:58;;;;;;;17.23;7.10;;;;;;;3.55;97.92;102040.66;1765665;80;21089;-59
2020/12/05 11:00:25;;;;;;;17.12;6.60;;;;;;;3.53;98.31;102023.39;1755588;81;21242;-59
2020/12/05 11:02:53;;;;;;;15.90;6.62;;;;;;;3.54;98.49;102021.64;1774706;80;21058;-59
2020/12/05 11:05:20;;;;;;;16.17;6.65;;;;;;;3.55;98.37;102027.41;1763076;80;21060;-60
2020/12/05 11:07:48;;;;;;;17.55;6.65;;;;;;;3.55;97.89;102022.09;1755510;81;21382;-59
2020/12/05 11:10:16;;;;;;;16.95;6.25;;;;;;;3.57;97.78;102021.69;1780156;79;21124;-59
2020/12/05 11:12:44;;;;;;;16.80;6.80;;;;;;;3.58;97.68;102027.45;1798439;79;21149;-59
2020/12/05 11:15:11;;;;;;;14.18;6.58;;;;;;;3.60;97.50;102011.12;1798371;79;21042;-60
2020/12/05 11:17:39;;;;;;;13.58;6.45;;;;;;;3.58;97.45;102024.38;1798353;79;21050;-60
2020/12/05 11:20:07;;;;;;;16.97;7.40;;;;;;;3.56;97.10;102011.95;1798378;79;21349;-58
2020/12/05 11:22:34;;;;;;;16.37;6.60;;;;;;;3.53;97.15;102023.39;1798387;79;20987;-58
2020/12/05 11:25:02;;;;;;;19.07;7.42;;;;;;;3.50;97.28;102003.45;1798418;79;21074;-59
2020/12/05 11:27:29;;;;;;;17.87;7.22;;;;;;;3.53;97.60;102014.56;1798398;79;20959;-59
2020/12/05 11:29:57;;;;;;;17.82;7.90;;;;;;;3.52;97.73;102019.41;1798405;79;21142;-59
2020/12/05 11:32:24;;;;;;;27.67;8.53;;;;;;;3.54;98.18;102028.27;1798358;79;21694;-60